sensor_id;sensor_type;location;lat;lon;timestamp;temperature;humidity
6421;DHT22;3243;50.958;7.012;2023-03-23T00:01:15;13.30;99.90
6421;DHT22;3243;50.958;7.012;2023-03-23T00:03:46;13.30;99.90
6421;DHT22;3243;50.958;7.012;2023-03-23T00:06:12;13.20;99.90
6421;DHT22;3243;50.958;7.012;2023-03-23T00:08:43;13.30;99.90
6421;DHT22;3243;50.958;7.012;2023-03-23T00:13:41;13.30;99.90
6421;DHT22;3243;50.958;7.012;2023-03-23T00:16:07;13.30;99.90
6421;DHT22;3243;50.958;7.012;2023-03-23T00:18:50;13.30;99.90
6421;DHT22;3243;50.958;7.012;2023-03-23T00:21:23;13.30;99.90
6421;DHT22;3243;50.958;7.012;2023-03-23T00:23:53;13.30;99.90
6421;DHT22;3243;50.958;7.012;2023-03-23T00:26:19;13.20;99.90
6421;DHT22;3243;50.958;7.012;2023-03-23T00:28:44;13.30;99.90
6421;DHT22;3243;50.958;7.012;2023-03-23T00:31:12;13.30;99.90
6421;DHT22;3243;50.958;7.012;2023-03-23T00:33:39;13.30;99.90
6421;DHT22;3243;50.958;7.012;2023-03-23T00:36:10;13.30;99.90
6421;DHT22;3243;50.958;7.012;2023-03-23T00:38:37;13.30;99.90
6421;DHT22;3243;50.958;7.012;2023-03-23T00:41:03;13.30;99.90
6421;DHT22;3243;50.958;7.012;2023-03-23T00:43:30;13.30;99.90
6421;DHT22;3243;50.958;7.012;2023-03-23T00:45:57;13.30;99.90
6421;DHT22;3243;50.958;7.012;2023-03-23T00:48:27;13.30;99.90
6421;DHT22;3243;50.958;7.012;2023-03-23T00:50:55;13.30;99.90
6421;DHT22;3243;50.958;7.012;2023-03-23T00:53:21;13.30;99.90
6421;DHT22;3243;50.958;7.012;2023-03-23T00:55:48;13.30;99.90
6421;DHT22;3243;50.958;7.012;2023-03-23T00:58:15;13.30;99.90
6421;DHT22;3243;50.958;7.012;2023-03-23T01:00:42;13.30;99.90
6421;DHT22;3243;50.958;7.012;2023-03-23T01:03:09;13.30;99.90
6421;DHT22;3243;50.958;7.012;2023-03-23T01:05:39;13.20;99.90
6421;DHT22;3243;50.958;7.012;2023-03-23T01:08:05;13.30;99.90
6421;DHT22;3243;50.958;7.012;2023-03-23T01:10:32;13.20;99.90
6421;DHT22;3243;50.958;7.012;2023-03-23T01:13:00;13.10;99.90
6421;DHT22;3243;50.958;7.012;2023-03-23T01:15:27;13.10;99.90
6421;DHT22;3243;50.958;7.012;2023-03-23T01:17:53;13.10;99.90
6421;DHT22;3243;50.958;7.012;2023-03-23T01:20:19;13.00;99.90
6421;DHT22;3243;50.958;7.012;2023-03-23T01:22:44;13.10;99.90
6421;DHT22;3243;50.958;7.012;2023-03-23T01:25:12;13.00;1.00
6421;DHT22;3243;50.958;7.012;2023-03-23T01:27:38;13.10;99.90
6421;DHT22;3243;50.958;7.012;2023-03-23T01:30:05;13.10;1.00
6421;DHT22;3243;50.958;7.012;2023-03-23T01:32:31;13.10;1.00
6421;DHT22;3243;50.958;7.012;2023-03-23T01:34:57;13.20;1.00
6421;DHT22;3243;50.958;7.012;2023-03-23T01:37:23;13.10;1.00
6421;DHT22;3243;50.958;7.012;2023-03-23T01:39:53;13.10;99.90
6421;DHT22;3243;50.958;7.012;2023-03-23T01:42:39;13.10;99.90
6421;DHT22;3243;50.958;7.012;2023-03-23T01:45:32;13.10;91.60
6421;DHT22;3243;50.958;7.012;2023-03-23T01:48:07;13.00;1.00
6421;DHT22;3243;50.958;7.012;2023-03-23T01:50:40;13.10;1.00
6421;DHT22;3243;50.958;7.012;2023-03-23T01:53:08;13.00;99.90
6421;DHT22;3243;50.958;7.012;2023-03-23T01:55:38;13.00;1.00
6421;DHT22;3243;50.958;7.012;2023-03-23T01:58:05;12.90;1.00
6421;DHT22;3243;50.958;7.012;2023-03-23T02:00:31;12.80;1.00
6421;DHT22;3243;50.958;7.012;2023-03-23T02:03:00;12.70;1.00
6421;DHT22;3243;50.958;7.012;2023-03-23T02:05:32;12.70;1.00
6421;DHT22;3243;50.958;7.012;2023-03-23T02:08:01;12.60;99.90
6421;DHT22;3243;50.958;7.012;2023-03-23T02:10:32;12.60;29.20
6421;DHT22;3243;50.958;7.012;2023-03-23T02:13:00;12.50;1.00
6421;DHT22;3243;50.958;7.012;2023-03-23T02:15:32;12.40;99.90
6421;DHT22;3243;50.958;7.012;2023-03-23T02:18:29;12.40;99.90
6421;DHT22;3243;50.958;7.012;2023-03-23T02:21:33;12.30;99.90
6421;DHT22;3243;50.958;7.012;2023-03-23T02:35:44;12.30;1.00
6421;DHT22;3243;50.958;7.012;2023-03-23T02:41:19;12.20;99.90
6421;DHT22;3243;50.958;7.012;2023-03-23T02:43:47;12.20;99.90
6421;DHT22;3243;50.958;7.012;2023-03-23T02:46:14;12.20;1.00
6421;DHT22;3243;50.958;7.012;2023-03-23T02:48:42;12.10;1.00
6421;DHT22;3243;50.958;7.012;2023-03-23T02:51:09;12.20;1.00
6421;DHT22;3243;50.958;7.012;2023-03-23T02:53:38;12.20;1.00
6421;DHT22;3243;50.958;7.012;2023-03-23T02:56:06;12.20;1.00
6421;DHT22;3243;50.958;7.012;2023-03-23T02:58:33;12.20;1.00
6421;DHT22;3243;50.958;7.012;2023-03-23T03:00:59;12.20;1.00
6421;DHT22;3243;50.958;7.012;2023-03-23T03:03:30;12.20;1.00
6421;DHT22;3243;50.958;7.012;2023-03-23T03:06:36;12.20;1.00
6421;DHT22;3243;50.958;7.012;2023-03-23T03:11:58;12.20;1.00
6421;DHT22;3243;50.958;7.012;2023-03-23T03:14:53;12.10;99.90
6421;DHT22;3243;50.958;7.012;2023-03-23T03:17:25;12.10;99.90
6421;DHT22;3243;50.958;7.012;2023-03-23T03:19:56;12.20;99.90
6421;DHT22;3243;50.958;7.012;2023-03-23T03:22:23;12.20;99.90
6421;DHT22;3243;50.958;7.012;2023-03-23T03:24:56;12.10;99.90
6421;DHT22;3243;50.958;7.012;2023-03-23T03:27:23;12.20;99.90
6421;DHT22;3243;50.958;7.012;2023-03-23T03:29:54;11.00;99.90
6421;DHT22;3243;50.958;7.012;2023-03-23T03:32:27;12.20;99.90
6421;DHT22;3243;50.958;7.012;2023-03-23T03:34:59;12.20;99.90
6421;DHT22;3243;50.958;7.012;2023-03-23T03:37:24;12.20;99.90
6421;DHT22;3243;50.958;7.012;2023-03-23T03:39:50;12.20;99.90
6421;DHT22;3243;50.958;7.012;2023-03-23T03:42:16;12.20;99.90
6421;DHT22;3243;50.958;7.012;2023-03-23T03:44:42;12.20;99.90
6421;DHT22;3243;50.958;7.012;2023-03-23T03:47:07;12.20;99.90
6421;DHT22;3243;50.958;7.012;2023-03-23T03:49:33;12.20;99.90
6421;DHT22;3243;50.958;7.012;2023-03-23T03:51:59;12.20;99.90
6421;DHT22;3243;50.958;7.012;2023-03-23T03:54:24;12.20;99.90
6421;DHT22;3243;50.958;7.012;2023-03-23T03:56:51;12.20;99.90
6421;DHT22;3243;50.958;7.012;2023-03-23T03:59:17;12.20;99.90
6421;DHT22;3243;50.958;7.012;2023-03-23T04:01:43;12.10;99.90
6421;DHT22;3243;50.958;7.012;2023-03-23T04:04:08;12.20;99.90
6421;DHT22;3243;50.958;7.012;2023-03-23T04:06:34;12.10;99.90
6421;DHT22;3243;50.958;7.012;2023-03-23T04:09:04;12.20;99.90
6421;DHT22;3243;50.958;7.012;2023-03-23T04:11:32;12.20;99.90
6421;DHT22;3243;50.958;7.012;2023-03-23T04:13:57;12.10;99.90
6421;DHT22;3243;50.958;7.012;2023-03-23T04:16:23;12.10;99.90
6421;DHT22;3243;50.958;7.012;2023-03-23T04:18:49;12.10;99.90
6421;DHT22;3243;50.958;7.012;2023-03-23T04:21:15;12.10;99.90
6421;DHT22;3243;50.958;7.012;2023-03-23T04:23:41;12.10;99.90
6421;DHT22;3243;50.958;7.012;2023-03-23T04:26:07;12.10;99.90
6421;DHT22;3243;50.958;7.012;2023-03-23T04:28:33;12.10;99.90
6421;DHT22;3243;50.958;7.012;2023-03-23T04:31:00;12.10;99.90
6421;DHT22;3243;50.958;7.012;2023-03-23T04:33:28;12.10;99.90
6421;DHT22;3243;50.958;7.012;2023-03-23T04:35:59;12.10;99.90
6421;DHT22;3243;50.958;7.012;2023-03-23T04:38:27;12.00;99.90
6421;DHT22;3243;50.958;7.012;2023-03-23T04:40:54;12.00;99.90
6421;DHT22;3243;50.958;7.012;2023-03-23T04:43:21;11.90;99.90
6421;DHT22;3243;50.958;7.012;2023-03-23T04:45:58;11.90;1.00
6421;DHT22;3243;50.958;7.012;2023-03-23T04:48:27;11.90;1.00
6421;DHT22;3243;50.958;7.012;2023-03-23T04:50:54;11.90;1.00
6421;DHT22;3243;50.958;7.012;2023-03-23T04:53:20;11.90;1.00
6421;DHT22;3243;50.958;7.012;2023-03-23T04:55:46;11.90;1.00
6421;DHT22;3243;50.958;7.012;2023-03-23T04:58:13;12.00;1.00
6421;DHT22;3243;50.958;7.012;2023-03-23T05:00:40;12.00;1.00
6421;DHT22;3243;50.958;7.012;2023-03-23T05:03:10;12.00;1.00
6421;DHT22;3243;50.958;7.012;2023-03-23T05:05:36;12.00;1.00
6421;DHT22;3243;50.958;7.012;2023-03-23T05:08:02;12.00;1.00
6421;DHT22;3243;50.958;7.012;2023-03-23T05:10:28;12.00;1.00
6421;DHT22;3243;50.958;7.012;2023-03-23T05:12:54;12.10;1.00
6421;DHT22;3243;50.958;7.012;2023-03-23T05:15:20;12.00;1.00
6421;DHT22;3243;50.958;7.012;2023-03-23T05:17:46;12.10;1.00
6421;DHT22;3243;50.958;7.012;2023-03-23T05:20:15;12.00;1.00
6421;DHT22;3243;50.958;7.012;2023-03-23T05:22:45;12.00;99.90
6421;DHT22;3243;50.958;7.012;2023-03-23T05:25:13;12.00;1.00
6421;DHT22;3243;50.958;7.012;2023-03-23T05:27:39;12.10;1.00
6421;DHT22;3243;50.958;7.012;2023-03-23T05:30:09;12.00;1.00
6421;DHT22;3243;50.958;7.012;2023-03-23T05:32:35;12.00;1.00
6421;DHT22;3243;50.958;7.012;2023-03-23T05:35:03;12.00;1.00
6421;DHT22;3243;50.958;7.012;2023-03-23T05:37:29;12.00;99.90
6421;DHT22;3243;50.958;7.012;2023-03-23T05:39:58;12.00;99.90
6421;DHT22;3243;50.958;7.012;2023-03-23T05:42:35;12.00;1.00
6421;DHT22;3243;50.958;7.012;2023-03-23T05:45:05;12.00;1.00
6421;DHT22;3243;50.958;7.012;2023-03-23T05:47:31;12.00;1.00
6421;DHT22;3243;50.958;7.012;2023-03-23T05:49:57;12.10;1.00
6421;DHT22;3243;50.958;7.012;2023-03-23T05:52:24;12.00;1.00
6421;DHT22;3243;50.958;7.012;2023-03-23T05:54:50;12.10;1.00
6421;DHT22;3243;50.958;7.012;2023-03-23T05:57:16;12.20;1.00
6421;DHT22;3243;50.958;7.012;2023-03-23T05:59:43;12.10;1.00
6421;DHT22;3243;50.958;7.012;2023-03-23T06:02:09;12.10;99.90
6421;DHT22;3243;50.958;7.012;2023-03-23T06:04:35;12.00;99.90
6421;DHT22;3243;50.958;7.012;2023-03-23T06:07:04;12.00;99.90
6421;DHT22;3243;50.958;7.012;2023-03-23T06:09:30;12.00;99.90
6421;DHT22;3243;50.958;7.012;2023-03-23T06:11:56;12.00;99.90
6421;DHT22;3243;50.958;7.012;2023-03-23T06:14:22;12.00;99.90
6421;DHT22;3243;50.958;7.012;2023-03-23T06:16:48;12.00;1.00
6421;DHT22;3243;50.958;7.012;2023-03-23T06:19:14;12.10;1.00
6421;DHT22;3243;50.958;7.012;2023-03-23T06:21:41;12.10;76.30
6421;DHT22;3243;50.958;7.012;2023-03-23T06:24:08;12.20;1.00
6421;DHT22;3243;50.958;7.012;2023-03-23T06:26:36;12.20;1.00
6421;DHT22;3243;50.958;7.012;2023-03-23T06:29:04;12.40;99.90
6421;DHT22;3243;50.958;7.012;2023-03-23T06:31:38;12.50;45.00
6421;DHT22;3243;50.958;7.012;2023-03-23T06:34:05;12.60;1.00
6421;DHT22;3243;50.958;7.012;2023-03-23T06:36:30;12.60;1.00
6421;DHT22;3243;50.958;7.012;2023-03-23T06:38:57;12.70;1.00
6421;DHT22;3243;50.958;7.012;2023-03-23T06:41:22;12.60;1.00
6421;DHT22;3243;50.958;7.012;2023-03-23T06:43:48;12.70;1.00
6421;DHT22;3243;50.958;7.012;2023-03-23T06:46:14;12.80;1.00
6421;DHT22;3243;50.958;7.012;2023-03-23T06:48:39;12.90;99.90
6421;DHT22;3243;50.958;7.012;2023-03-23T06:51:05;12.90;99.90
6421;DHT22;3243;50.958;7.012;2023-03-23T06:53:31;13.00;99.90
6421;DHT22;3243;50.958;7.012;2023-03-23T06:55:57;13.10;99.90
6421;DHT22;3243;50.958;7.012;2023-03-23T06:58:23;13.20;99.90
6421;DHT22;3243;50.958;7.012;2023-03-23T07:00:53;13.20;99.90
6421;DHT22;3243;50.958;7.012;2023-03-23T07:03:22;13.20;99.90
6421;DHT22;3243;50.958;7.012;2023-03-23T07:05:48;13.20;99.90
6421;DHT22;3243;50.958;7.012;2023-03-23T07:08:14;13.10;99.90
6421;DHT22;3243;50.958;7.012;2023-03-23T07:10:40;13.20;99.90
6421;DHT22;3243;50.958;7.012;2023-03-23T07:13:06;13.30;99.90
6421;DHT22;3243;50.958;7.012;2023-03-23T07:15:32;13.20;1.00
6421;DHT22;3243;50.958;7.012;2023-03-23T07:17:58;13.20;1.00
6421;DHT22;3243;50.958;7.012;2023-03-23T07:20:23;13.20;99.90
6421;DHT22;3243;50.958;7.012;2023-03-23T07:22:49;13.20;1.00
6421;DHT22;3243;50.958;7.012;2023-03-23T07:25:16;13.30;1.00
6421;DHT22;3243;50.958;7.012;2023-03-23T07:27:44;13.30;99.90
6421;DHT22;3243;50.958;7.012;2023-03-23T07:30:11;13.40;1.00
6421;DHT22;3243;50.958;7.012;2023-03-23T07:32:37;13.50;1.00
6421;DHT22;3243;50.958;7.012;2023-03-23T07:35:03;13.50;99.90
6421;DHT22;3243;50.958;7.012;2023-03-23T07:37:29;13.50;99.90
6421;DHT22;3243;50.958;7.012;2023-03-23T07:39:57;13.60;99.90
6421;DHT22;3243;50.958;7.012;2023-03-23T07:42:23;13.60;99.90
6421;DHT22;3243;50.958;7.012;2023-03-23T07:44:49;13.70;99.90
6421;DHT22;3243;50.958;7.012;2023-03-23T07:47:15;13.70;99.90
6421;DHT22;3243;50.958;7.012;2023-03-23T07:49:43;13.70;99.90
6421;DHT22;3243;50.958;7.012;2023-03-23T07:52:08;13.80;1.00
6421;DHT22;3243;50.958;7.012;2023-03-23T07:54:36;13.90;1.00
6421;DHT22;3243;50.958;7.012;2023-03-23T07:57:02;13.80;1.00
6421;DHT22;3243;50.958;7.012;2023-03-23T07:59:28;13.80;99.90
6421;DHT22;3243;50.958;7.012;2023-03-23T08:01:54;13.90;1.00
6421;DHT22;3243;50.958;7.012;2023-03-23T08:04:19;13.80;99.90
6421;DHT22;3243;50.958;7.012;2023-03-23T08:06:45;14.00;99.90
6421;DHT22;3243;50.958;7.012;2023-03-23T08:09:11;14.10;99.90
6421;DHT22;3243;50.958;7.012;2023-03-23T08:11:38;14.20;99.90
6421;DHT22;3243;50.958;7.012;2023-03-23T08:14:04;14.20;99.90
6421;DHT22;3243;50.958;7.012;2023-03-23T08:16:31;14.30;99.90
6421;DHT22;3243;50.958;7.012;2023-03-23T08:18:57;14.30;99.90
6421;DHT22;3243;50.958;7.012;2023-03-23T08:21:23;14.30;99.90
6421;DHT22;3243;50.958;7.012;2023-03-23T08:23:49;16.30;99.90
6421;DHT22;3243;50.958;7.012;2023-03-23T08:26:15;14.30;99.90
6421;DHT22;3243;50.958;7.012;2023-03-23T08:28:42;14.30;99.90
6421;DHT22;3243;50.958;7.012;2023-03-23T08:31:11;14.30;99.90
6421;DHT22;3243;50.958;7.012;2023-03-23T08:33:38;14.40;24.40
6421;DHT22;3243;50.958;7.012;2023-03-23T08:36:04;14.40;99.90
6421;DHT22;3243;50.958;7.012;2023-03-23T08:38:31;14.40;99.90
6421;DHT22;3243;50.958;7.012;2023-03-23T08:41:02;14.40;99.90
6421;DHT22;3243;50.958;7.012;2023-03-23T08:43:31;14.50;99.90
6421;DHT22;3243;50.958;7.012;2023-03-23T08:45:58;14.50;99.90
6421;DHT22;3243;50.958;7.012;2023-03-23T08:48:23;14.50;99.90
6421;DHT22;3243;50.958;7.012;2023-03-23T08:50:50;14.70;62.70
6421;DHT22;3243;50.958;7.012;2023-03-23T08:53:18;14.70;43.60
6421;DHT22;3243;50.958;7.012;2023-03-23T08:55:44;14.80;99.90
6421;DHT22;3243;50.958;7.012;2023-03-23T08:58:10;14.70;1.00
6421;DHT22;3243;50.958;7.012;2023-03-23T09:00:36;14.60;1.00
6421;DHT22;3243;50.958;7.012;2023-03-23T09:03:01;14.60;1.00
6421;DHT22;3243;50.958;7.012;2023-03-23T09:05:28;18.10;1.00
6421;DHT22;3243;50.958;7.012;2023-03-23T09:07:57;14.30;1.00
6421;DHT22;3243;50.958;7.012;2023-03-23T09:10:26;14.40;99.90
6421;DHT22;3243;50.958;7.012;2023-03-23T09:12:52;14.40;1.00
6421;DHT22;3243;50.958;7.012;2023-03-23T09:15:19;14.40;1.00
6421;DHT22;3243;50.958;7.012;2023-03-23T09:17:47;14.50;37.00
6421;DHT22;3243;50.958;7.012;2023-03-23T09:20:15;14.50;75.20
6421;DHT22;3243;50.958;7.012;2023-03-23T09:22:47;14.70;99.90
6421;DHT22;3243;50.958;7.012;2023-03-23T09:25:15;14.70;99.90
6421;DHT22;3243;50.958;7.012;2023-03-23T09:27:44;14.70;99.90
6421;DHT22;3243;50.958;7.012;2023-03-23T09:30:13;14.70;99.90
6421;DHT22;3243;50.958;7.012;2023-03-23T09:32:40;14.90;95.70
6421;DHT22;3243;50.958;7.012;2023-03-23T09:35:09;14.90;99.90
6421;DHT22;3243;50.958;7.012;2023-03-23T09:37:38;15.10;26.80
6421;DHT22;3243;50.958;7.012;2023-03-23T09:40:05;15.30;68.40
6421;DHT22;3243;50.958;7.012;2023-03-23T09:50:55;15.30;99.90
6421;DHT22;3243;50.958;7.012;2023-03-23T09:53:27;15.20;99.90
6421;DHT22;3243;50.958;7.012;2023-03-23T09:56:01;15.10;99.90
6421;DHT22;3243;50.958;7.012;2023-03-23T09:58:49;15.10;99.90
6421;DHT22;3243;50.958;7.012;2023-03-23T10:01:31;15.10;99.90
6421;DHT22;3243;50.958;7.012;2023-03-23T10:07:05;15.10;99.90
6421;DHT22;3243;50.958;7.012;2023-03-23T10:09:31;15.10;41.20
6421;DHT22;3243;50.958;7.012;2023-03-23T10:18:08;15.30;29.80
6421;DHT22;3243;50.958;7.012;2023-03-23T10:20:59;15.30;1.00
6421;DHT22;3243;50.958;7.012;2023-03-23T10:28:46;15.80;1.00
6421;DHT22;3243;50.958;7.012;2023-03-23T10:31:22;15.70;99.90
6421;DHT22;3243;50.958;7.012;2023-03-23T10:33:51;15.70;1.00
6421;DHT22;3243;50.958;7.012;2023-03-23T10:36:34;15.40;1.00
6421;DHT22;3243;50.958;7.012;2023-03-23T10:39:27;15.40;10.50
6421;DHT22;3243;50.958;7.012;2023-03-23T10:41:51;15.30;99.90
6421;DHT22;3243;50.958;7.012;2023-03-23T10:44:20;15.10;99.90
6421;DHT22;3243;50.958;7.012;2023-03-23T10:49:24;15.10;99.90
6421;DHT22;3243;50.958;7.012;2023-03-23T10:52:06;14.90;99.90
6421;DHT22;3243;50.958;7.012;2023-03-23T10:54:45;14.90;99.90
6421;DHT22;3243;50.958;7.012;2023-03-23T10:57:20;14.90;99.90
6421;DHT22;3243;50.958;7.012;2023-03-23T11:02:17;14.90;99.90
6421;DHT22;3243;50.958;7.012;2023-03-23T11:04:54;15.10;40.70
6421;DHT22;3243;50.958;7.012;2023-03-23T11:07:29;15.10;1.00
6421;DHT22;3243;50.958;7.012;2023-03-23T11:09:57;15.30;80.40
6421;DHT22;3243;50.958;7.012;2023-03-23T11:12:33;15.30;54.30
6421;DHT22;3243;50.958;7.012;2023-03-23T11:15:14;15.40;99.90
6421;DHT22;3243;50.958;7.012;2023-03-23T11:20:12;15.30;99.90
6421;DHT22;3243;50.958;7.012;2023-03-23T11:22:38;15.40;99.90
6421;DHT22;3243;50.958;7.012;2023-03-23T11:25:05;15.50;99.90
6421;DHT22;3243;50.958;7.012;2023-03-23T11:27:32;15.70;99.90
6421;DHT22;3243;50.958;7.012;2023-03-23T11:30:26;15.70;99.90
6421;DHT22;3243;50.958;7.012;2023-03-23T11:32:54;15.80;99.90
6421;DHT22;3243;50.958;7.012;2023-03-23T11:35:23;15.50;99.90
6421;DHT22;3243;50.958;7.012;2023-03-23T11:37:56;15.60;99.90
6421;DHT22;3243;50.958;7.012;2023-03-23T11:40:27;15.60;99.90
6421;DHT22;3243;50.958;7.012;2023-03-23T11:42:59;15.60;99.90
6421;DHT22;3243;50.958;7.012;2023-03-23T11:45:35;15.60;99.90
6421;DHT22;3243;50.958;7.012;2023-03-23T11:50:54;15.50;99.90
6421;DHT22;3243;50.958;7.012;2023-03-23T11:54:12;15.30;67.10
6421;DHT22;3243;50.958;7.012;2023-03-23T11:56:24;15.10;99.90
6421;DHT22;3243;50.958;7.012;2023-03-23T11:58:57;15.00;99.90
6421;DHT22;3243;50.958;7.012;2023-03-23T12:07:08;14.60;99.90
6421;DHT22;3243;50.958;7.012;2023-03-23T12:12:45;15.00;99.90
6421;DHT22;3243;50.958;7.012;2023-03-23T12:34:40;17.10;99.90
6421;DHT22;3243;50.958;7.012;2023-03-23T12:37:42;17.30;98.40
6421;DHT22;3243;50.958;7.012;2023-03-23T12:48:08;16.90;99.90
6421;DHT22;3243;50.958;7.012;2023-03-23T12:50:44;16.60;87.40
6421;DHT22;3243;50.958;7.012;2023-03-23T12:53:22;16.40;99.90
6421;DHT22;3243;50.958;7.012;2023-03-23T12:58:42;16.20;1.00
6421;DHT22;3243;50.958;7.012;2023-03-23T13:01:23;16.10;30.20
6421;DHT22;3243;50.958;7.012;2023-03-23T13:09:10;16.10;99.90
6421;DHT22;3243;50.958;7.012;2023-03-23T13:11:39;16.20;69.80
6421;DHT22;3243;50.958;7.012;2023-03-23T13:27:59;16.30;99.90
6421;DHT22;3243;50.958;7.012;2023-03-23T13:30:26;16.20;1.00
6421;DHT22;3243;50.958;7.012;2023-03-23T13:33:06;16.30;99.90
6421;DHT22;3243;50.958;7.012;2023-03-23T13:35:41;16.20;1.00
6421;DHT22;3243;50.958;7.012;2023-03-23T13:38:33;16.40;99.90
6421;DHT22;3243;50.958;7.012;2023-03-23T13:41:07;16.70;99.90
6421;DHT22;3243;50.958;7.012;2023-03-23T13:43:36;16.80;99.90
6421;DHT22;3243;50.958;7.012;2023-03-23T13:51:47;15.80;99.90
6421;DHT22;3243;50.958;7.012;2023-03-23T13:54:29;15.60;99.90
6421;DHT22;3243;50.958;7.012;2023-03-23T13:57:01;15.70;94.80
6421;DHT22;3243;50.958;7.012;2023-03-23T13:59:30;15.80;99.90
6421;DHT22;3243;50.958;7.012;2023-03-23T14:07:58;16.30;99.90
6421;DHT22;3243;50.958;7.012;2023-03-23T14:10:33;16.40;64.60
6421;DHT22;3243;50.958;7.012;2023-03-23T14:13:01;16.50;99.90
6421;DHT22;3243;50.958;7.012;2023-03-23T14:15:37;16.70;99.90
6421;DHT22;3243;50.958;7.012;2023-03-23T14:18:06;16.90;99.90
6421;DHT22;3243;50.958;7.012;2023-03-23T14:20:34;16.90;99.90
6421;DHT22;3243;50.958;7.012;2023-03-23T14:23:00;16.70;99.90
6421;DHT22;3243;50.958;7.012;2023-03-23T14:25:29;16.60;99.90
6421;DHT22;3243;50.958;7.012;2023-03-23T14:27:56;16.40;99.90
6421;DHT22;3243;50.958;7.012;2023-03-23T14:30:24;16.40;37.00
6421;DHT22;3243;50.958;7.012;2023-03-23T14:33:02;16.30;1.00
6421;DHT22;3243;50.958;7.012;2023-03-23T14:35:32;16.10;12.00
6421;DHT22;3243;50.958;7.012;2023-03-23T14:37:59;16.10;99.90
6421;DHT22;3243;50.958;7.012;2023-03-23T14:40:29;16.00;99.90
6421;DHT22;3243;50.958;7.012;2023-03-23T14:42:56;16.00;99.90
6421;DHT22;3243;50.958;7.012;2023-03-23T14:45:23;15.90;90.70
6421;DHT22;3243;50.958;7.012;2023-03-23T14:47:58;15.90;99.90
6421;DHT22;3243;50.958;7.012;2023-03-23T14:52:51;15.60;99.90
6421;DHT22;3243;50.958;7.012;2023-03-23T14:55:22;15.60;99.90
6421;DHT22;3243;50.958;7.012;2023-03-23T14:57:49;15.60;70.20
6421;DHT22;3243;50.958;7.012;2023-03-23T15:00:24;15.50;99.90
6421;DHT22;3243;50.958;7.012;2023-03-23T15:02:53;15.30;99.90
6421;DHT22;3243;50.958;7.012;2023-03-23T15:05:30;15.20;20.40
6421;DHT22;3243;50.958;7.012;2023-03-23T15:08:14;15.20;99.90
6421;DHT22;3243;50.958;7.012;2023-03-23T15:10:41;15.10;1.00
6421;DHT22;3243;50.958;7.012;2023-03-23T15:13:12;15.40;1.00
6421;DHT22;3243;50.958;7.012;2023-03-23T15:15:37;15.40;1.00
6421;DHT22;3243;50.958;7.012;2023-03-23T15:18:04;15.60;1.00
6421;DHT22;3243;50.958;7.012;2023-03-23T15:20:32;15.70;1.00
6421;DHT22;3243;50.958;7.012;2023-03-23T15:23:15;15.90;3.70
6421;DHT22;3243;50.958;7.012;2023-03-23T15:25:48;16.20;99.90
6421;DHT22;3243;50.958;7.012;2023-03-23T15:28:16;16.30;99.90
6421;DHT22;3243;50.958;7.012;2023-03-23T15:30:48;16.50;99.90
6421;DHT22;3243;50.958;7.012;2023-03-23T15:33:15;16.40;99.90
6421;DHT22;3243;50.958;7.012;2023-03-23T15:35:47;16.50;99.90
6421;DHT22;3243;50.958;7.012;2023-03-23T15:38:26;16.60;99.90
6421;DHT22;3243;50.958;7.012;2023-03-23T15:40:55;16.70;99.90
6421;DHT22;3243;50.958;7.012;2023-03-23T15:43:48;16.60;99.90
6421;DHT22;3243;50.958;7.012;2023-03-23T15:48:54;16.50;99.90
6421;DHT22;3243;50.958;7.012;2023-03-23T15:51:29;16.40;99.90
6421;DHT22;3243;50.958;7.012;2023-03-23T15:53:56;16.30;99.90
6421;DHT22;3243;50.958;7.012;2023-03-23T15:56:23;16.30;99.90
6421;DHT22;3243;50.958;7.012;2023-03-23T15:58:49;16.30;99.90
6421;DHT22;3243;50.958;7.012;2023-03-23T16:01:20;16.10;99.90
6421;DHT22;3243;50.958;7.012;2023-03-23T16:03:49;16.10;35.90
6421;DHT22;3243;50.958;7.012;2023-03-23T16:06:21;16.10;80.60
6421;DHT22;3243;50.958;7.012;2023-03-23T16:08:52;16.10;99.90
6421;DHT22;3243;50.958;7.012;2023-03-23T16:11:22;16.20;99.90
6421;DHT22;3243;50.958;7.012;2023-03-23T16:13:49;16.30;1.00
6421;DHT22;3243;50.958;7.012;2023-03-23T16:16:20;16.10;99.90
6421;DHT22;3243;50.958;7.012;2023-03-23T16:18:48;16.10;1.00
6421;DHT22;3243;50.958;7.012;2023-03-23T16:21:14;16.00;99.90
6421;DHT22;3243;50.958;7.012;2023-03-23T16:23:41;15.80;1.00
6421;DHT22;3243;50.958;7.012;2023-03-23T16:26:12;15.70;99.90
6421;DHT22;3243;50.958;7.012;2023-03-23T16:28:40;15.60;1.00
6421;DHT22;3243;50.958;7.012;2023-03-23T16:31:08;15.50;1.00
6421;DHT22;3243;50.958;7.012;2023-03-23T16:33:35;15.60;1.00
6421;DHT22;3243;50.958;7.012;2023-03-23T16:36:02;15.60;99.90
6421;DHT22;3243;50.958;7.012;2023-03-23T16:38:29;15.70;1.00
6421;DHT22;3243;50.958;7.012;2023-03-23T16:40:56;15.60;1.00
6421;DHT22;3243;50.958;7.012;2023-03-23T16:43:23;15.60;99.90
6421;DHT22;3243;50.958;7.012;2023-03-23T16:45:54;15.50;99.90
6421;DHT22;3243;50.958;7.012;2023-03-23T16:48:22;15.40;99.90
6421;DHT22;3243;50.958;7.012;2023-03-23T16:50:50;15.40;99.90
6421;DHT22;3243;50.958;7.012;2023-03-23T16:53:17;15.30;99.90
6421;DHT22;3243;50.958;7.012;2023-03-23T16:55:44;15.30;99.90
6421;DHT22;3243;50.958;7.012;2023-03-23T16:58:15;15.30;99.90
6421;DHT22;3243;50.958;7.012;2023-03-23T17:00:47;15.30;1.00
6421;DHT22;3243;50.958;7.012;2023-03-23T17:03:16;15.30;1.00
6421;DHT22;3243;50.958;7.012;2023-03-23T17:05:43;15.30;1.00
6421;DHT22;3243;50.958;7.012;2023-03-23T17:08:11;15.30;94.00
6421;DHT22;3243;50.958;7.012;2023-03-23T17:10:39;15.20;73.40
6421;DHT22;3243;50.958;7.012;2023-03-23T17:13:06;15.20;57.80
6421;DHT22;3243;50.958;7.012;2023-03-23T17:15:36;15.20;16.10
6421;DHT22;3243;50.958;7.012;2023-03-23T17:18:03;15.00;1.00
6421;DHT22;3243;50.958;7.012;2023-03-23T17:20:30;15.00;1.00
6421;DHT22;3243;50.958;7.012;2023-03-23T17:22:57;15.00;99.90
6421;DHT22;3243;50.958;7.012;2023-03-23T17:25:26;14.90;99.90
6421;DHT22;3243;50.958;7.012;2023-03-23T17:27:53;14.80;99.90
6421;DHT22;3243;50.958;7.012;2023-03-23T17:30:19;14.80;99.90
6421;DHT22;3243;50.958;7.012;2023-03-23T17:32:46;14.70;99.90
6421;DHT22;3243;50.958;7.012;2023-03-23T17:35:14;14.70;99.90
6421;DHT22;3243;50.958;7.012;2023-03-23T17:37:42;14.60;99.90
6421;DHT22;3243;50.958;7.012;2023-03-23T17:40:09;14.50;99.90
6421;DHT22;3243;50.958;7.012;2023-03-23T17:42:36;14.40;46.80
6421;DHT22;3243;50.958;7.012;2023-03-23T17:45:05;14.50;1.00
6421;DHT22;3243;50.958;7.012;2023-03-23T17:47:33;14.40;99.90
6421;DHT22;3243;50.958;7.012;2023-03-23T17:50:00;14.30;99.90
6421;DHT22;3243;50.958;7.012;2023-03-23T17:52:38;14.30;99.90
6421;DHT22;3243;50.958;7.012;2023-03-23T17:55:05;14.30;99.90
6421;DHT22;3243;50.958;7.012;2023-03-23T17:57:32;14.20;99.90
6421;DHT22;3243;50.958;7.012;2023-03-23T18:00:01;14.20;99.90
6421;DHT22;3243;50.958;7.012;2023-03-23T18:02:27;14.10;99.90
6421;DHT22;3243;50.958;7.012;2023-03-23T18:04:56;14.10;99.90
6421;DHT22;3243;50.958;7.012;2023-03-23T18:07:25;14.00;99.90
6421;DHT22;3243;50.958;7.012;2023-03-23T18:09:59;14.00;1.00
6421;DHT22;3243;50.958;7.012;2023-03-23T18:12:26;14.10;1.00
6421;DHT22;3243;50.958;7.012;2023-03-23T18:14:56;14.00;99.90
6421;DHT22;3243;50.958;7.012;2023-03-23T18:17:24;14.00;1.00
6421;DHT22;3243;50.958;7.012;2023-03-23T18:19:51;14.00;1.00
6421;DHT22;3243;50.958;7.012;2023-03-23T18:22:18;14.00;1.00
6421;DHT22;3243;50.958;7.012;2023-03-23T18:24:45;14.10;86.70
6421;DHT22;3243;50.958;7.012;2023-03-23T18:27:13;14.00;1.00
6421;DHT22;3243;50.958;7.012;2023-03-23T18:29:40;14.00;99.90